createdAt,value
2023-01-27T00:01:28.675Z,46.42
2023-01-27T00:03:59.401Z,46.21
2023-01-27T00:06:30.018Z,46.59
2023-01-27T00:09:00.561Z,46.59
2023-01-27T00:11:48.813Z,46.13
2023-01-27T00:14:19.424Z,45.85
2023-01-27T00:16:50.063Z,46.13
2023-01-27T00:19:22.311Z,45.03
2023-01-27T00:22:11.043Z,45.49
2023-01-27T00:24:42.685Z,45.08
2023-01-27T00:27:13.425Z,44.81
2023-01-27T00:29:43.956Z,45.29
2023-01-27T00:32:32.393Z,45.02
2023-01-27T00:35:02.965Z,44.88
2023-01-27T00:37:33.495Z,45.00
2023-01-27T00:40:04.065Z,45.01
2023-01-27T00:42:34.638Z,44.82
2023-01-27T00:45:24.513Z,45.00
2023-01-27T00:47:55.308Z,44.67
2023-01-27T00:50:26.526Z,45.05
2023-01-27T00:52:58.702Z,45.22
2023-01-27T00:55:29.232Z,44.68
2023-01-27T00:57:59.777Z,45.64
2023-01-27T01:00:30.312Z,45.04
2023-01-27T01:03:00.942Z,45.46
2023-01-27T01:05:31.632Z,45.22
2023-01-27T01:08:02.154Z,44.95
2023-01-27T01:10:32.699Z,45.87
2023-01-27T01:13:03.286Z,45.11
2023-01-27T01:15:38.595Z,44.92
2023-01-27T01:18:11.012Z,44.47
2023-01-27T01:20:44.253Z,45.58
2023-01-27T01:23:16.516Z,45.43
2023-01-27T01:25:58.344Z,44.59
2023-01-27T01:28:28.892Z,44.92
2023-01-27T01:31:11.270Z,45.92
2023-01-27T01:33:41.985Z,45.92
2023-01-27T01:36:15.436Z,45.46
2023-01-27T01:38:46.786Z,45.35
2023-01-27T01:41:20.453Z,44.55
2023-01-27T01:43:52.105Z,44.39
2023-01-27T01:46:22.737Z,44.98
2023-01-27T01:48:56.243Z,44.72
2023-01-27T01:51:35.679Z,44.11
2023-01-27T01:54:09.563Z,45.24
2023-01-27T01:56:43.378Z,44.50
2023-01-27T01:59:19.471Z,44.33
2023-01-27T02:01:54.267Z,45.14
2023-01-27T02:04:27.709Z,45.48
2023-01-27T02:07:16.162Z,44.44
2023-01-27T02:09:46.708Z,44.11
2023-01-27T02:12:17.286Z,43.62
2023-01-27T02:14:47.837Z,43.84
2023-01-27T02:17:18.597Z,44.00
2023-01-27T02:20:07.415Z,44.50
2023-01-27T02:22:55.636Z,44.81
2023-01-27T02:25:38.097Z,44.85
2023-01-27T02:28:09.760Z,44.61
2023-01-27T02:30:40.404Z,44.85
2023-01-27T02:33:16.287Z,44.70
2023-01-27T02:35:59.318Z,46.64
2023-01-27T02:38:32.789Z,45.41
2023-01-27T02:41:15.137Z,45.97
2023-01-27T02:43:45.730Z,46.29
2023-01-27T02:46:18.359Z,45.29
2023-01-27T02:48:48.915Z,45.12
2023-01-27T02:51:20.678Z,45.18
2023-01-27T02:53:51.239Z,46.03
2023-01-27T02:56:21.882Z,46.43
2023-01-27T02:58:52.442Z,44.91
2023-01-27T03:01:24.241Z,45.63
2023-01-27T03:03:56.050Z,44.55
2023-01-27T03:06:26.720Z,44.54
2023-01-27T03:08:57.315Z,44.94
2023-01-27T03:11:46.926Z,44.77
2023-01-27T03:14:18.172Z,44.70
2023-01-27T03:17:06.723Z,45.24
2023-01-27T03:19:37.297Z,45.63
2023-01-27T03:22:07.835Z,44.48
2023-01-27T03:24:39.631Z,44.16
2023-01-27T03:27:10.351Z,44.51
2023-01-27T03:29:56.065Z,43.83
2023-01-27T03:32:32.446Z,44.19
2023-01-27T03:35:04.117Z,44.35
2023-01-27T03:37:52.640Z,43.54
2023-01-27T03:40:41.242Z,43.87
2023-01-27T03:43:29.943Z,44.49
2023-01-27T03:46:17.673Z,45.16
2023-01-27T03:48:51.488Z,44.97
2023-01-27T03:51:25.713Z,44.88
2023-01-27T03:53:56.224Z,44.37
2023-01-27T03:56:26.781Z,43.87
2023-01-27T03:58:57.927Z,44.19
2023-01-27T04:01:28.534Z,45.02
2023-01-27T04:04:17.099Z,44.69
2023-01-27T04:06:55.480Z,44.97
2023-01-27T04:09:28.838Z,44.75
2023-01-27T04:12:01.050Z,44.47
2023-01-27T04:14:39.306Z,44.38
2023-01-27T04:17:12.773Z,44.25
2023-01-27T04:19:43.281Z,45.07
2023-01-27T04:22:15.929Z,44.87
2023-01-27T04:24:46.477Z,44.27
2023-01-27T04:27:18.663Z,44.01
2023-01-27T04:29:49.345Z,44.61
2023-01-27T04:32:19.968Z,44.18
2023-01-27T04:34:50.491Z,44.73
2023-01-27T04:37:21.096Z,45.19
2023-01-27T04:39:51.697Z,44.94
2023-01-27T04:42:22.312Z,45.94
2023-01-27T04:44:52.904Z,46.10
2023-01-27T04:47:23.433Z,45.71
2023-01-27T04:49:54.023Z,45.34
2023-01-27T04:52:26.129Z,45.64
2023-01-27T04:54:56.702Z,45.96
2023-01-27T04:57:28.268Z,45.51
2023-01-27T04:59:58.834Z,45.98
2023-01-27T05:02:29.423Z,46.11
2023-01-27T05:04:59.985Z,46.43
2023-01-27T05:07:32.162Z,46.46
2023-01-27T05:10:03.033Z,47.14
2023-01-27T05:12:33.896Z,46.48
2023-01-27T05:15:04.540Z,46.06
2023-01-27T05:17:36.018Z,46.22
2023-01-27T05:20:07.219Z,46.13
2023-01-27T05:22:37.781Z,46.82
2023-01-27T05:25:08.976Z,46.47
2023-01-27T05:27:39.891Z,46.34
2023-01-27T05:30:11.674Z,47.70
2023-01-27T05:32:42.247Z,46.76
2023-01-27T05:35:13.106Z,46.02
2023-01-27T05:37:43.865Z,46.35
2023-01-27T05:40:14.977Z,46.76
2023-01-27T05:42:45.567Z,47.28
2023-01-27T05:45:16.601Z,47.22
2023-01-27T05:47:55.025Z,47.36
2023-01-27T05:50:25.625Z,46.34
2023-01-27T05:52:56.185Z,46.92
2023-01-27T05:55:27.229Z,47.12
2023-01-27T05:57:57.792Z,47.27
2023-01-27T06:00:28.401Z,46.78
2023-01-27T06:02:58.983Z,46.21
2023-01-27T06:05:29.530Z,47.15
2023-01-27T06:08:00.123Z,46.14
2023-01-27T06:10:32.263Z,45.80
2023-01-27T06:13:04.048Z,45.68
2023-01-27T06:15:34.606Z,47.47
2023-01-27T06:18:05.276Z,46.04
2023-01-27T06:20:36.168Z,48.11
2023-01-27T06:23:07.642Z,46.09
2023-01-27T06:25:46.395Z,46.83
2023-01-27T06:28:30.447Z,46.57
2023-01-27T06:30:51.248Z,47.80
2023-01-27T06:33:21.874Z,47.51
2023-01-27T06:35:52.410Z,46.54
2023-01-27T06:38:22.993Z,46.53
2023-01-27T06:43:28.717Z,47.13
2023-01-27T06:45:59.349Z,46.08
2023-01-27T06:48:30.458Z,45.87
2023-01-27T06:51:00.993Z,47.38
2023-01-27T06:53:32.823Z,46.28
2023-01-27T06:56:03.931Z,46.00
2023-01-27T06:58:34.539Z,45.28
2023-01-27T07:01:07.530Z,45.70
2023-01-27T07:03:38.222Z,45.24
2023-01-27T07:06:10.686Z,44.72
2023-01-27T07:08:42.580Z,45.23
2023-01-27T07:11:13.197Z,44.69
2023-01-27T07:13:44.765Z,45.40
2023-01-27T07:16:15.421Z,44.95
2023-01-27T07:18:46.052Z,45.56
2023-01-27T07:21:16.627Z,44.79
2023-01-27T07:23:47.175Z,44.46
2023-01-27T07:26:25.130Z,44.77
2023-01-27T07:28:51.859Z,44.03
2023-01-27T07:31:22.578Z,43.19
2023-01-27T07:33:55.319Z,43.58
2023-01-27T07:36:25.950Z,43.08
2023-01-27T07:38:57.717Z,43.32
2023-01-27T07:41:28.314Z,43.13
2023-01-27T07:43:58.961Z,43.50
2023-01-27T07:46:29.588Z,43.84
2023-01-27T07:49:00.139Z,43.51
2023-01-27T07:51:31.898Z,43.40
2023-01-27T07:54:05.292Z,43.57
2023-01-27T07:56:36.614Z,43.41
2023-01-27T07:59:07.204Z,43.57
2023-01-27T08:01:38.466Z,42.99
2023-01-27T08:04:09.089Z,42.51
2023-01-27T08:06:40.464Z,42.09
2023-01-27T08:09:11.057Z,42.88
2023-01-27T08:11:41.600Z,41.81
2023-01-27T08:14:12.205Z,41.95
2023-01-27T08:16:42.790Z,42.06
2023-01-27T08:19:13.401Z,42.56
2023-01-27T08:21:43.969Z,42.27
2023-01-27T08:24:14.702Z,41.95
2023-01-27T08:26:45.390Z,41.98
2023-01-27T08:29:15.955Z,42.04
2023-01-27T08:31:46.568Z,42.04
2023-01-27T08:34:17.304Z,42.02
2023-01-27T08:36:47.924Z,41.53
2023-01-27T08:39:18.501Z,41.42
2023-01-27T08:41:49.017Z,41.46
2023-01-27T08:44:19.706Z,41.52
2023-01-27T08:46:50.271Z,41.75
2023-01-27T08:49:20.977Z,41.75
2023-01-27T08:51:51.501Z,41.55
2023-01-27T08:54:22.079Z,41.90
2023-01-27T08:56:53.848Z,41.54
2023-01-27T08:59:24.434Z,41.73
2023-01-27T09:01:54.968Z,42.31
2023-01-27T09:04:25.929Z,42.21
2023-01-27T09:06:56.513Z,41.91
2023-01-27T09:09:27.076Z,42.12
2023-01-27T09:11:57.774Z,43.05
2023-01-27T09:14:28.481Z,42.11
2023-01-27T09:17:00.164Z,41.70
2023-01-27T09:19:30.694Z,41.58
2023-01-27T09:22:01.263Z,42.08
2023-01-27T09:24:31.849Z,41.58
2023-01-27T09:27:02.390Z,41.81
2023-01-27T09:29:33.490Z,42.38
2023-01-27T09:32:04.758Z,43.99
2023-01-27T09:34:40.817Z,42.82
2023-01-27T09:37:15.837Z,42.39
2023-01-27T09:39:50.440Z,43.57
2023-01-27T09:42:39.506Z,43.34
2023-01-27T09:45:23.148Z,43.13
2023-01-27T09:48:02.345Z,42.65
2023-01-27T09:50:47.756Z,42.15
2023-01-27T09:53:32.558Z,42.28
2023-01-27T09:56:12.475Z,42.53
2023-01-27T09:58:59.452Z,43.41
2023-01-27T10:01:54.246Z,43.90
2023-01-27T10:04:47.665Z,43.61
2023-01-27T10:07:29.145Z,43.68
2023-01-27T10:10:14.034Z,44.11
2023-01-27T10:13:09.220Z,44.46
2023-01-27T10:16:03.929Z,43.43
2023-01-27T10:19:05.651Z,43.98
2023-01-27T10:21:53.554Z,44.45
2023-01-27T10:24:55.079Z,43.26
2023-01-27T10:27:29.543Z,43.26
2023-01-27T10:30:03.816Z,42.80
2023-01-27T10:32:49.928Z,44.05
2023-01-27T10:35:23.753Z,43.41
2023-01-27T10:38:05.307Z,44.56
2023-01-27T10:40:55.492Z,43.87
2023-01-27T10:43:39.857Z,44.07
2023-01-27T10:46:15.558Z,44.42
2023-01-27T10:48:53.710Z,43.32
2023-01-27T10:51:30.431Z,43.01
2023-01-27T10:54:16.081Z,42.94
2023-01-27T10:57:09.287Z,42.95
2023-01-27T10:59:55.261Z,42.48
2023-01-27T11:02:39.942Z,43.46
2023-01-27T11:05:16.267Z,43.28
2023-01-27T11:07:55.659Z,44.35
2023-01-27T11:10:34.567Z,43.17
2023-01-27T11:13:10.444Z,48.11
2023-01-27T11:15:44.744Z,43.95
2023-01-27T11:18:27.512Z,43.38
2023-01-27T11:21:24.281Z,44.39
2023-01-27T11:24:24.172Z,44.10
2023-01-27T11:27:08.234Z,43.19
2023-01-27T11:29:45.792Z,43.41
2023-01-27T11:32:30.690Z,45.09
2023-01-27T11:35:08.277Z,44.06
2023-01-27T11:37:48.679Z,44.30
2023-01-27T11:40:26.163Z,44.20
2023-01-27T11:43:02.524Z,44.26
2023-01-27T11:45:53.424Z,44.22
2023-01-27T11:48:24.135Z,43.67
2023-01-27T11:50:54.793Z,44.55
2023-01-27T11:53:32.864Z,44.51
2023-01-27T11:56:07.787Z,44.01
2023-01-27T11:58:44.110Z,45.34
2023-01-27T12:01:18.766Z,44.89
2023-01-27T12:04:04.895Z,44.42
2023-01-27T12:06:38.419Z,43.87
2023-01-27T12:09:10.420Z,44.85
2023-01-27T12:11:42.285Z,44.92
2023-01-27T12:14:14.607Z,44.37
2023-01-27T12:16:48.073Z,45.71
2023-01-27T12:19:32.219Z,45.69
2023-01-27T12:22:05.728Z,45.16
2023-01-27T12:24:42.678Z,46.08
2023-01-27T12:27:18.791Z,45.71
2023-01-27T12:29:58.111Z,45.74
2023-01-27T12:32:47.279Z,45.78
2023-01-27T12:35:32.854Z,45.88
2023-01-27T12:38:06.303Z,45.92
2023-01-27T12:40:38.432Z,47.26
2023-01-27T12:43:22.919Z,46.76
2023-01-27T12:46:17.512Z,46.95
2023-01-27T12:48:53.762Z,46.82
2023-01-27T12:51:27.348Z,47.01
2023-01-27T12:54:00.844Z,46.84
2023-01-27T12:56:33.577Z,46.62
2023-01-27T12:59:04.141Z,47.22
2023-01-27T13:01:39.171Z,47.58
2023-01-27T13:04:25.888Z,48.39
2023-01-27T13:06:59.428Z,47.99
2023-01-27T13:09:35.737Z,48.20
2023-01-27T13:12:30.182Z,48.53
2023-01-27T13:15:10.262Z,48.07
2023-01-27T13:17:46.509Z,47.22
2023-01-27T13:20:32.406Z,47.81
2023-01-27T13:23:14.741Z,48.78
2023-01-27T13:25:51.395Z,47.80
2023-01-27T13:28:51.270Z,47.84
2023-01-27T13:31:12.179Z,48.40
2023-01-27T13:33:54.609Z,48.04
2023-01-27T13:36:37.059Z,47.87
2023-01-27T13:39:39.286Z,47.87
2023-01-27T13:42:21.535Z,47.32
2023-01-27T13:45:17.592Z,47.42
2023-01-27T13:47:54.019Z,48.33
2023-01-27T13:50:27.917Z,48.05
2023-01-27T13:53:01.091Z,47.83
2023-01-27T13:55:40.449Z,46.96
2023-01-27T13:58:16.695Z,47.67
2023-01-27T14:00:53.354Z,47.03
2023-01-27T14:03:32.664Z,47.75
2023-01-27T14:06:20.690Z,47.27
2023-01-27T14:09:03.032Z,47.75
2023-01-27T14:11:42.178Z,47.51
2023-01-27T14:14:24.584Z,47.19
2023-01-27T14:16:59.325Z,47.29
2023-01-27T14:19:41.756Z,47.45
2023-01-27T14:22:24.305Z,47.86
2023-01-27T14:25:06.905Z,47.33
2023-01-27T14:27:42.935Z,46.57
2023-01-27T14:30:25.299Z,46.55
2023-01-27T14:33:02.060Z,46.80
2023-01-27T14:35:44.177Z,46.97
2023-01-27T14:38:23.398Z,46.81
2023-01-27T14:41:04.135Z,48.12
2023-01-27T14:43:58.962Z,46.79
2023-01-27T14:46:48.311Z,47.94
2023-01-27T14:49:57.228Z,48.06
2023-01-27T14:52:37.775Z,48.87
2023-01-27T14:55:33.944Z,48.03
2023-01-27T14:58:08.024Z,49.10
2023-01-27T15:00:56.515Z,47.96
2023-01-27T15:03:48.340Z,47.44
2023-01-27T15:06:29.117Z,47.78
2023-01-27T15:09:08.575Z,47.67
2023-01-27T15:11:48.252Z,48.67
2023-01-27T15:14:27.611Z,48.73
2023-01-27T15:17:03.904Z,48.50
2023-01-27T15:20:02.937Z,48.45
2023-01-27T15:22:51.339Z,49.06
2023-01-27T15:25:33.653Z,47.76
2023-01-27T15:28:05.405Z,47.31
2023-01-27T15:30:38.742Z,47.68
2023-01-27T15:33:45.671Z,47.43
2023-01-27T15:36:26.206Z,46.54
2023-01-27T15:39:05.941Z,46.81
2023-01-27T15:41:41.454Z,46.75
2023-01-27T15:44:27.097Z,47.23
2023-01-27T15:47:21.637Z,47.43
2023-01-27T15:50:00.831Z,47.78
2023-01-27T15:52:38.361Z,46.67
2023-01-27T15:55:11.656Z,47.98
2023-01-27T15:57:43.742Z,47.59
2023-01-27T16:00:26.463Z,47.63
2023-01-27T16:02:58.571Z,47.45
2023-01-27T16:05:31.976Z,47.89
2023-01-27T16:08:05.985Z,47.25
2023-01-27T16:10:37.341Z,47.22
2023-01-27T16:13:28.837Z,48.15
2023-01-27T16:16:22.021Z,49.16
2023-01-27T16:19:09.925Z,48.77
2023-01-27T16:21:52.691Z,48.16
2023-01-27T16:24:29.342Z,48.38
2023-01-27T16:27:08.483Z,47.61
2023-01-27T16:29:48.112Z,49.59
2023-01-27T16:32:22.154Z,46.76
2023-01-27T16:34:55.689Z,46.82
2023-01-27T16:37:31.834Z,47.02
2023-01-27T16:40:20.631Z,47.08
2023-01-27T16:43:00.166Z,47.85
2023-01-27T16:45:33.742Z,47.44
2023-01-27T16:48:10.059Z,47.60
2023-01-27T16:50:43.042Z,48.09
2023-01-27T16:53:22.380Z,47.82
2023-01-27T16:56:07.867Z,48.11
2023-01-27T16:58:46.667Z,46.79
2023-01-27T17:01:13.468Z,47.60
2023-01-27T17:03:43.973Z,46.71
2023-01-27T17:06:17.220Z,46.01
2023-01-27T17:08:49.858Z,45.26
2023-01-27T17:11:26.379Z,46.08
2023-01-27T17:14:05.475Z,46.81
2023-01-27T17:16:42.545Z,45.58
2023-01-27T17:19:21.754Z,46.12
2023-01-27T17:22:00.983Z,45.80
2023-01-27T17:24:49.623Z,44.79
2023-01-27T17:27:30.944Z,45.89
2023-01-27T17:30:25.491Z,44.55
2023-01-27T17:32:58.874Z,45.36
2023-01-27T17:35:37.979Z,44.76
2023-01-27T17:38:26.597Z,44.52
2023-01-27T17:40:57.050Z,45.27
2023-01-27T17:43:32.952Z,44.89
2023-01-27T17:46:22.115Z,44.98
2023-01-27T17:49:04.177Z,45.57
2023-01-27T17:51:45.719Z,45.65
2023-01-27T17:54:23.039Z,46.37
2023-01-27T17:57:20.187Z,45.98
2023-01-27T18:00:12.857Z,46.04
2023-01-27T18:03:18.992Z,45.58
2023-01-27T18:05:53.046Z,45.31
2023-01-27T18:08:27.392Z,46.34
2023-01-27T18:11:16.624Z,45.06
2023-01-27T18:13:55.597Z,46.22
2023-01-27T18:16:30.981Z,45.23
2023-01-27T18:19:27.976Z,45.57
2023-01-27T18:22:16.582Z,45.27
2023-01-27T18:24:58.615Z,45.68
2023-01-27T18:27:34.288Z,45.60
2023-01-27T18:30:12.808Z,45.64
2023-01-27T18:32:50.686Z,46.48
2023-01-27T18:35:31.479Z,44.93
2023-01-27T18:38:11.636Z,44.48
2023-01-27T18:40:42.994Z,45.63
2023-01-27T18:43:15.178Z,44.35
2023-01-27T18:45:48.141Z,44.33
2023-01-27T18:48:19.612Z,44.62
2023-01-27T18:50:52.639Z,44.40
2023-01-27T18:53:26.520Z,44.30
2023-01-27T18:56:01.625Z,44.35
2023-01-27T18:58:37.096Z,45.58
2023-01-27T19:01:16.440Z,45.91
2023-01-27T19:03:54.042Z,45.91
2023-01-27T19:06:28.066Z,45.31
2023-01-27T19:08:59.985Z,44.57
2023-01-27T19:11:34.699Z,44.84
2023-01-27T19:14:07.184Z,44.28
2023-01-27T19:16:40.350Z,44.65
2023-01-27T19:19:14.928Z,44.27
2023-01-27T19:21:45.945Z,45.28
2023-01-27T19:24:21.204Z,43.79
2023-01-27T19:27:04.140Z,44.52
2023-01-27T19:29:35.357Z,43.30
2023-01-27T19:32:08.415Z,43.99
2023-01-27T19:34:40.356Z,44.61
2023-01-27T19:37:19.439Z,44.98
2023-01-27T19:39:51.985Z,43.84
2023-01-27T19:42:23.886Z,43.42
2023-01-27T19:44:59.229Z,44.14
2023-01-27T19:47:34.378Z,44.35
2023-01-27T19:50:08.869Z,44.29
2023-01-27T19:52:41.465Z,43.09
2023-01-27T19:55:13.710Z,43.73
2023-01-27T19:57:48.598Z,44.04
2023-01-27T20:00:29.262Z,44.40
2023-01-27T20:03:01.665Z,44.43
2023-01-27T20:05:40.303Z,43.93
2023-01-27T20:08:15.672Z,43.80
2023-01-27T20:10:50.827Z,44.16
2023-01-27T20:13:23.655Z,44.79
2023-01-27T20:15:54.607Z,44.09
2023-01-27T20:18:25.078Z,44.52
2023-01-27T20:20:55.589Z,44.10
2023-01-27T20:23:26.116Z,43.83
2023-01-27T20:25:58.323Z,43.50
2023-01-27T20:28:30.248Z,43.51
2023-01-27T20:31:02.160Z,43.91
2023-01-27T20:33:32.784Z,44.53
2023-01-27T20:36:08.423Z,43.84
2023-01-27T20:38:40.942Z,43.70
2023-01-27T20:41:14.798Z,43.62
2023-01-27T20:43:45.388Z,43.37
2023-01-27T20:46:21.109Z,43.81
2023-01-27T20:48:53.052Z,44.12
2023-01-27T20:51:23.658Z,43.37
2023-01-27T20:53:54.164Z,43.33
2023-01-27T20:56:25.514Z,42.88
2023-01-27T20:58:56.024Z,42.74
2023-01-27T21:01:26.810Z,43.57
2023-01-27T21:03:57.397Z,43.65
2023-01-27T21:06:27.856Z,43.12
2023-01-27T21:08:58.319Z,42.35
2023-01-27T21:11:28.951Z,42.58
2023-01-27T21:13:59.385Z,42.41
2023-01-27T21:16:29.944Z,43.33
2023-01-27T21:19:00.564Z,42.28
2023-01-27T21:21:32.504Z,42.37
2023-01-27T21:24:03.199Z,42.40
2023-01-27T21:26:33.788Z,42.64
2023-01-27T21:29:05.268Z,42.94
2023-01-27T21:31:35.840Z,43.53
2023-01-27T21:34:06.485Z,41.57
2023-01-27T21:36:37.407Z,42.30
2023-01-27T21:39:08.454Z,42.16
2023-01-27T21:41:55.941Z,42.77
2023-01-27T21:44:49.205Z,42.90
2023-01-27T21:47:20.747Z,42.84
2023-01-27T21:50:04.504Z,42.93
2023-01-27T21:52:39.418Z,42.85
2023-01-27T21:55:16.040Z,42.17
2023-01-27T21:57:48.689Z,42.00
2023-01-27T22:00:22.684Z,43.72
2023-01-27T22:03:00.235Z,42.69
2023-01-27T22:05:33.075Z,42.84
2023-01-27T22:08:03.806Z,44.21
2023-01-27T22:10:35.605Z,43.57
2023-01-27T22:13:06.179Z,42.89
2023-01-27T22:15:36.620Z,42.52
2023-01-27T22:18:07.409Z,43.15
2023-01-27T22:20:38.562Z,42.72
2023-01-27T22:23:09.024Z,43.11
2023-01-27T22:25:39.542Z,42.59
2023-01-27T22:28:10.097Z,42.56
2023-01-27T22:30:40.560Z,42.49
2023-01-27T22:33:11.035Z,43.83
2023-01-27T22:35:41.484Z,43.07
2023-01-27T22:38:12.068Z,43.27
2023-01-27T22:40:42.503Z,44.44
2023-01-27T22:43:13.004Z,42.83
2023-01-27T22:45:43.505Z,43.46
2023-01-27T22:48:14.645Z,42.62
2023-01-27T22:50:45.112Z,43.97
2023-01-27T22:53:15.632Z,44.79
2023-01-27T22:55:46.103Z,44.02
2023-01-27T22:58:17.853Z,42.99
2023-01-27T23:00:49.554Z,43.76
2023-01-27T23:03:20.668Z,43.95
2023-01-27T23:05:51.363Z,44.05
2023-01-27T23:08:21.938Z,44.44
2023-01-27T23:10:52.500Z,43.87
2023-01-27T23:13:24.172Z,43.79
2023-01-27T23:15:54.603Z,43.59
2023-01-27T23:18:26.047Z,43.65
2023-01-27T23:21:00.534Z,43.20
2023-01-27T23:23:31.092Z,43.65
2023-01-27T23:26:01.597Z,43.86
2023-01-27T23:28:33.225Z,43.87
2023-01-27T23:31:05.613Z,43.96
2023-01-27T23:33:39.298Z,44.29
2023-01-27T23:36:11.938Z,44.39
2023-01-27T23:38:42.447Z,43.45
2023-01-27T23:41:15.915Z,44.21
2023-01-27T23:43:55.367Z,44.56
2023-01-27T23:46:26.913Z,44.69
2023-01-27T23:48:58.694Z,43.91
2023-01-27T23:51:29.159Z,43.87
2023-01-27T23:53:59.677Z,44.07
2023-01-27T23:56:30.145Z,43.33
2023-01-27T23:59:00.601Z,43.54
